Wetterdaten: Woche 28.05.12 - 03.06.12 (KW22)
Datum Zeit Temperatur Luftfeuchte Luftdruck Niederschlag Windrichtung Sonnenschein Solar Wind
28.05.2012 00:00 12,6 C 70 % 1014,6 hPa 0,0 l/m N 0,00 h 0 W/m 6,1 km/h (2 Bft)
28.05.2012 01:00 11,8 C 74 % 1014,6 hPa 0,0 l/m N 0,00 h 0 W/m 1,9 km/h (1 Bft)
28.05.2012 02:00 10,7 C 79 % 1014,3 hPa 0,0 l/m N 0,00 h 0 W/m 2,9 km/h (1 Bft)
28.05.2012 03:00 10,4 C 81 % 1014,1 hPa 0,0 l/m N 0,00 h 0 W/m 2,9 km/h (1 Bft)
28.05.2012 04:00 10,3 C 82 % 1013,9 hPa 0,0 l/m N 0,00 h 0 W/m 1,1 km/h (0 Bft)
28.05.2012 05:00 9,5 C 86 % 1014,0 hPa 0,0 l/m N 0,00 h 9 W/m 0,1 km/h (0 Bft)
28.05.2012 06:00 9,7 C 87 % 1014,4 hPa 0,0 l/m N 0,00 h 53 W/m 0,8 km/h (0 Bft)
28.05.2012 07:00 12,1 C 75 % 1014,5 hPa 0,0 l/m N 0,83 h 198 W/m 5,2 km/h (1 Bft)
28.05.2012 08:00 14,8 C 64 % 1014,6 hPa 0,0 l/m N-NO 1,00 h 381 W/m 4,5 km/h (1 Bft)
28.05.2012 09:00 16,9 C 56 % 1014,6 hPa 0,0 l/m O 0,83 h 482 W/m 5,6 km/h (1 Bft)
28.05.2012 10:00 18,2 C 51 % 1014,2 hPa 0,0 l/m O 0,83 h 608 W/m 6,2 km/h (2 Bft)
28.05.2012 11:00 19,4 C 48 % 1014,1 hPa 0,0 l/m W-NW 0,92 h 658 W/m 8,2 km/h (2 Bft)
28.05.2012 12:00 20,3 C 45 % 1013,8 hPa 0,0 l/m N-NW 0,75 h 797 W/m 7,5 km/h (2 Bft)
28.05.2012 13:00 21,2 C 46 % 1013,4 hPa 0,0 l/m W 0,67 h 854 W/m 11,8 km/h (2 Bft)
28.05.2012 14:00 20,7 C 46 % 1013,1 hPa 0,0 l/m W-NW 0,25 h 392 W/m 9,9 km/h (2 Bft)
28.05.2012 15:00 20,9 C 46 % 1012,8 hPa 0,0 l/m W-SW 0,33 h 432 W/m 10,6 km/h (2 Bft)
28.05.2012 16:00 21,3 C 45 % 1012,4 hPa 0,0 l/m W-NW 0,42 h 477 W/m 9,7 km/h (2 Bft)
28.05.2012 17:00 22,3 C 41 % 1012,1 hPa 0,0 l/m W-NW 0,83 h 496 W/m 13,3 km/h (3 Bft)
28.05.2012 18:00 21,1 C 45 % 1012,1 hPa 0,0 l/m W-NW 0,67 h 294 W/m 11,0 km/h (2 Bft)
28.05.2012 19:00 21,0 C 43 % 1012,1 hPa 0,0 l/m N-NO 0,83 h 194 W/m 6,6 km/h (2 Bft)
28.05.2012 20:00 18,8 C 58 % 1012,0 hPa 0,0 l/m N 0,25 h 39 W/m 1,2 km/h (1 Bft)
28.05.2012 21:00 17,1 C 60 % 1012,2 hPa 0,0 l/m N 0,00 h 5 W/m 2,4 km/h (1 Bft)
28.05.2012 22:00 16,4 C 58 % 1012,6 hPa 0,0 l/m N 0,00 h 0 W/m 2,4 km/h (1 Bft)
28.05.2012 23:00 15,4 C 68 % 1012,7 hPa 0,0 l/m N 0,00 h 0 W/m 0,3 km/h (0 Bft)
29.05.2012 00:00 15,0 C 70 % 1012,4 hPa 0,0 l/m N 0,00 h 0 W/m 0,3 km/h (0 Bft)
29.05.2012 01:00 14,2 C 76 % 1012,3 hPa 0,0 l/m N 0,00 h 0 W/m 1,7 km/h (1 Bft)
29.05.2012 02:00 13,9 C 78 % 1012,1 hPa 0,0 l/m N 0,00 h 0 W/m 0,0 km/h (0 Bft)
29.05.2012 03:00 14,2 C 76 % 1012,3 hPa 0,0 l/m N 0,00 h 0 W/m 1,9 km/h (1 Bft)
29.05.2012 04:00 13,4 C 88 % 1012,1 hPa 3,6 l/m W 0,00 h 0 W/m 8,4 km/h (2 Bft)
29.05.2012 05:00 12,3 C 94 % 1011,9 hPa 0,0 l/m W 0,00 h 11 W/m 3,5 km/h (1 Bft)
29.05.2012 06:00 12,2 C 95 % 1012,4 hPa 0,0 l/m W-SW 0,00 h 41 W/m 4,1 km/h (1 Bft)
29.05.2012 07:00 13,7 C 88 % 1012,4 hPa 0,0 l/m SW 0,75 h 192 W/m 11,3 km/h (2 Bft)
29.05.2012 08:00 15,7 C 84 % 1012,6 hPa 0,0 l/m SW 1,00 h 357 W/m 12,1 km/h (2 Bft)
29.05.2012 09:00 17,4 C 81 % 1012,4 hPa 0,0 l/m S-SW 1,00 h 520 W/m 11,4 km/h (2 Bft)
29.05.2012 10:00 19,1 C 71 % 1012,4 hPa 0,0 l/m S-SW 0,67 h 516 W/m 10,8 km/h (2 Bft)
29.05.2012 11:00 19,7 C 62 % 1012,1 hPa 0,0 l/m W-NW 0,33 h 352 W/m 9,5 km/h (2 Bft)
29.05.2012 12:00 21,1 C 52 % 1011,9 hPa 0,0 l/m NW 0,75 h 701 W/m 14,8 km/h (3 Bft)
29.05.2012 13:00 21,8 C 43 % 1011,7 hPa 0,0 l/m N 0,58 h 721 W/m 14,8 km/h (3 Bft)
29.05.2012 14:00 23,0 C 36 % 1011,7 hPa 0,0 l/m N 0,75 h 766 W/m 17,0 km/h (3 Bft)
29.05.2012 15:00 22,1 C 38 % 1011,8 hPa 0,0 l/m N 0,33 h 425 W/m 11,8 km/h (2 Bft)
29.05.2012 16:00 23,6 C 31 % 1011,8 hPa 0,0 l/m N 0,75 h 590 W/m 13,6 km/h (3 Bft)
29.05.2012 17:00 22,3 C 36 % 1011,7 hPa 0,0 l/m N 0,33 h 285 W/m 9,4 km/h (2 Bft)
29.05.2012 18:00 22,0 C 40 % 1011,8 hPa 0,0 l/m N-NO 0,58 h 270 W/m 8,3 km/h (2 Bft)
29.05.2012 19:00 21,7 C 41 % 1012,0 hPa 0,0 l/m N-NO 0,75 h 150 W/m 7,1 km/h (2 Bft)
29.05.2012 20:00 18,5 C 58 % 1012,1 hPa 0,0 l/m N 0,00 h 18 W/m 1,5 km/h (1 Bft)
29.05.2012 21:00 16,5 C 65 % 1012,3 hPa 0,0 l/m N-NO 0,00 h 5 W/m 0,9 km/h (0 Bft)
29.05.2012 22:00 17,5 C 60 % 1013,1 hPa 0,0 l/m N-NO 0,00 h 0 W/m 5,9 km/h (2 Bft)
29.05.2012 23:00 16,9 C 62 % 1013,4 hPa 0,0 l/m N 0,00 h 0 W/m 5,8 km/h (1 Bft)
30.05.2012 00:00 16,9 C 65 % 1013,7 hPa 0,0 l/m W 0,00 h 0 W/m 7,6 km/h (2 Bft)
30.05.2012 01:00 15,4 C 77 % 1013,3 hPa 0,0 l/m N 0,00 h 0 W/m 0,4 km/h (0 Bft)
30.05.2012 02:00 14,3 C 79 % 1013,4 hPa 0,0 l/m N 0,00 h 0 W/m 0,1 km/h (0 Bft)
30.05.2012 03:00 12,9 C 88 % 1013,9 hPa 0,0 l/m W-SW 0,00 h 0 W/m 2,8 km/h (1 Bft)
30.05.2012 04:00 12,2 C 90 % 1013,9 hPa 0,0 l/m W-SW 0,00 h 0 W/m 1,9 km/h (1 Bft)
30.05.2012 05:00 12,4 C 90 % 1014,2 hPa 0,0 l/m N 0,00 h 7 W/m 0,1 km/h (0 Bft)
30.05.2012 06:00 12,5 C 92 % 1014,4 hPa 0,0 l/m N 0,00 h 31 W/m 0,0 km/h (0 Bft)
30.05.2012 07:00 14,3 C 85 % 1014,8 hPa 0,0 l/m SW 0,75 h 184 W/m 4,8 km/h (1 Bft)
30.05.2012 08:00 16,1 C 74 % 1015,2 hPa 0,0 l/m S-SW 0,92 h 354 W/m 10,9 km/h (2 Bft)
30.05.2012 09:00 18,1 C 71 % 1015,3 hPa 0,0 l/m S-SW 0,92 h 547 W/m 10,9 km/h (2 Bft)
30.05.2012 10:00 20,3 C 65 % 1015,3 hPa 0,0 l/m SW 1,00 h 671 W/m 13,3 km/h (3 Bft)
30.05.2012 11:00 21,9 C 57 % 1015,2 hPa 0,0 l/m SW 0,67 h 595 W/m 14,0 km/h (3 Bft)
30.05.2012 12:00 22,5 C 50 % 1015,1 hPa 0,0 l/m S-SW 0,67 h 754 W/m 9,5 km/h (2 Bft)
30.05.2012 13:00 22,6 C 49 % 1015,0 hPa 0,0 l/m W-SW 0,42 h 490 W/m 23,2 km/h (4 Bft)
30.05.2012 14:00 23,0 C 48 % 1014,7 hPa 0,0 l/m W-SW 0,83 h 820 W/m 23,8 km/h (4 Bft)
30.05.2012 15:00 24,0 C 45 % 1014,2 hPa 0,0 l/m W-SW 0,58 h 549 W/m 20,0 km/h (4 Bft)
30.05.2012 16:00 18,1 C 71 % 1014,8 hPa 3,2 l/m N-NO 0,00 h 114 W/m 17,2 km/h (3 Bft)
30.05.2012 17:00 19,4 C 76 % 1014,7 hPa 0,0 l/m N-NO 0,75 h 469 W/m 6,3 km/h (2 Bft)
30.05.2012 18:00 20,9 C 62 % 1014,5 hPa 0,0 l/m W 0,33 h 213 W/m 10,3 km/h (2 Bft)
30.05.2012 19:00 18,1 C 77 % 1015,3 hPa 7,0 l/m N 0,00 h 32 W/m 10,5 km/h (2 Bft)
30.05.2012 20:00 15,7 C 94 % 1015,6 hPa 0,2 l/m N 0,00 h 21 W/m 1,9 km/h (1 Bft)
30.05.2012 21:00 14,7 C 96 % 1015,8 hPa 0,0 l/m N 0,00 h 5 W/m 1,2 km/h (1 Bft)
30.05.2012 22:00 13,8 C 97 % 1016,4 hPa 0,0 l/m W 0,00 h 0 W/m 2,0 km/h (1 Bft)
30.05.2012 23:00 13,6 C 96 % 1016,9 hPa 0,0 l/m W 0,00 h 0 W/m 8,6 km/h (2 Bft)
31.05.2012 00:00 13,0 C 92 % 1017,2 hPa 3,2 l/m SW 0,00 h 0 W/m 12,5 km/h (3 Bft)
31.05.2012 01:00 11,7 C 96 % 1016,7 hPa 0,0 l/m N 0,00 h 0 W/m 3,2 km/h (1 Bft)
31.05.2012 02:00 11,0 C 97 % 1016,9 hPa 0,0 l/m N 0,00 h 0 W/m 1,2 km/h (1 Bft)
31.05.2012 03:00 10,8 C 98 % 1017,2 hPa 0,0 l/m N 0,00 h 0 W/m 0,8 km/h (0 Bft)
31.05.2012 04:00 10,5 C 98 % 1017,2 hPa 0,0 l/m N 0,00 h 0 W/m 0,0 km/h (0 Bft)
31.05.2012 05:00 10,2 C 98 % 1017,5 hPa 0,0 l/m N 0,00 h 7 W/m 0,0 km/h (0 Bft)
31.05.2012 06:00 10,6 C 98 % 1017,9 hPa 0,0 l/m N 0,00 h 39 W/m 0,4 km/h (0 Bft)
31.05.2012 07:00 12,1 C 98 % 1018,2 hPa 0,0 l/m N 0,58 h 159 W/m 0,8 km/h (0 Bft)
31.05.2012 08:00 15,0 C 92 % 1018,3 hPa 0,0 l/m W-SW 0,67 h 291 W/m 5,6 km/h (1 Bft)
31.05.2012 09:00 17,2 C 85 % 1018,1 hPa 0,0 l/m SW 0,92 h 472 W/m 10,5 km/h (2 Bft)
31.05.2012 10:00 18,6 C 81 % 1017,7 hPa 0,0 l/m SW 0,67 h 474 W/m 15,7 km/h (3 Bft)
31.05.2012 11:00 19,2 C 75 % 1017,4 hPa 0,0 l/m W-SW 0,58 h 534 W/m 19,4 km/h (3 Bft)
31.05.2012 12:00 20,6 C 68 % 1017,3 hPa 0,0 l/m SW 1,00 h 808 W/m 19,7 km/h (3 Bft)
31.05.2012 13:00 21,6 C 60 % 1016,8 hPa 0,0 l/m W-SW 1,00 h 803 W/m 21,6 km/h (4 Bft)
31.05.2012 14:00 21,6 C 59 % 1016,2 hPa 0,0 l/m W-SW 0,42 h 464 W/m 20,2 km/h (4 Bft)
31.05.2012 15:00 21,9 C 58 % 1015,5 hPa 0,0 l/m W 0,42 h 473 W/m 18,9 km/h (3 Bft)
31.05.2012 16:00 20,7 C 59 % 1015,0 hPa 0,0 l/m W 0,00 h 155 W/m 13,0 km/h (3 Bft)
31.05.2012 17:00 20,3 C 59 % 1014,4 hPa 0,0 l/m N-NW 0,00 h 147 W/m 7,8 km/h (2 Bft)
31.05.2012 18:00 20,6 C 59 % 1013,7 hPa 0,0 l/m W-NW 0,58 h 244 W/m 4,7 km/h (1 Bft)
31.05.2012 19:00 20,3 C 56 % 1013,3 hPa 0,0 l/m W-SW 0,00 h 57 W/m 12,1 km/h (2 Bft)
31.05.2012 20:00 19,5 C 58 % 1013,4 hPa 0,0 l/m W 0,00 h 13 W/m 8,7 km/h (2 Bft)
31.05.2012 21:00 18,2 C 67 % 1014,0 hPa 0,0 l/m W 0,00 h 0 W/m 10,9 km/h (2 Bft)
31.05.2012 22:00 16,3 C 81 % 1014,5 hPa 1,2 l/m W 0,00 h 0 W/m 8,9 km/h (2 Bft)
31.05.2012 23:00 14,8 C 92 % 1014,4 hPa 0,6 l/m W 0,00 h 0 W/m 9,4 km/h (2 Bft)
01.06.2012 00:00 14,5 C 94 % 1013,8 hPa 0,2 l/m W-SW 0,00 h 0 W/m 13,0 km/h (3 Bft)
01.06.2012 01:00 14,7 C 95 % 1013,7 hPa 0,0 l/m W-SW 0,00 h 0 W/m 8,8 km/h (2 Bft)
01.06.2012 02:00 14,9 C 93 % 1013,7 hPa 0,0 l/m W-NW 0,00 h 0 W/m 12,7 km/h (3 Bft)
01.06.2012 03:00 14,3 C 88 % 1013,9 hPa 0,0 l/m W-NW 0,00 h 0 W/m 12,4 km/h (3 Bft)
01.06.2012 04:00 13,5 C 90 % 1014,0 hPa 0,6 l/m NW 0,00 h 0 W/m 7,6 km/h (2 Bft)
01.06.2012 05:00 12,8 C 92 % 1014,3 hPa 0,2 l/m W-NW 0,00 h 8 W/m 11,9 km/h (2 Bft)
01.06.2012 06:00 12,7 C 91 % 1014,7 hPa 0,0 l/m W-NW 0,00 h 29 W/m 9,4 km/h (2 Bft)
01.06.2012 07:00 12,9 C 90 % 1015,1 hPa 0,0 l/m W-NW 0,00 h 76 W/m 11,4 km/h (2 Bft)
01.06.2012 08:00 13,2 C 92 % 1015,4 hPa 0,0 l/m W-NW 0,00 h 130 W/m 12,8 km/h (3 Bft)
01.06.2012 09:00 13,7 C 89 % 1015,6 hPa 0,0 l/m W-NW 0,00 h 177 W/m 16,4 km/h (3 Bft)
01.06.2012 10:00 14,2 C 85 % 1015,8 hPa 0,0 l/m W-NW 0,00 h 193 W/m 16,4 km/h (3 Bft)
01.06.2012 11:00 15,4 C 76 % 1015,9 hPa 0,0 l/m W-NW 0,08 h 328 W/m 15,6 km/h (3 Bft)
01.06.2012 12:00 17,4 C 62 % 1015,9 hPa 0,0 l/m W-NW 0,58 h 644 W/m 19,6 km/h (3 Bft)
01.06.2012 13:00 18,9 C 54 % 1015,6 hPa 0,0 l/m NW 0,67 h 737 W/m 19,2 km/h (3 Bft)
01.06.2012 14:00 19,6 C 50 % 1015,4 hPa 0,0 l/m NW 0,67 h 732 W/m 17,8 km/h (3 Bft)
01.06.2012 15:00 18,4 C 62 % 1015,1 hPa 0,0 l/m W-SW 0,08 h 267 W/m 16,9 km/h (3 Bft)
01.06.2012 16:00 18,3 C 66 % 1014,8 hPa 0,0 l/m W-SW 0,00 h 204 W/m 20,2 km/h (4 Bft)
01.06.2012 17:00 17,1 C 74 % 1014,8 hPa 0,0 l/m W-SW 0,00 h 50 W/m 14,6 km/h (3 Bft)
01.06.2012 18:00 16,7 C 79 % 1015,0 hPa 0,0 l/m SW 0,00 h 63 W/m 10,5 km/h (2 Bft)
01.06.2012 19:00 16,5 C 80 % 1015,2 hPa 0,0 l/m SW 0,00 h 33 W/m 3,9 km/h (1 Bft)
01.06.2012 20:00 16,0 C 82 % 1015,3 hPa 0,0 l/m SW 0,00 h 8 W/m 3,7 km/h (1 Bft)
01.06.2012 21:00 15,5 C 78 % 1015,3 hPa 0,0 l/m W-SW 0,00 h 0 W/m 6,3 km/h (2 Bft)
01.06.2012 22:00 14,5 C 82 % 1015,4 hPa 0,0 l/m W-SW 0,00 h 0 W/m 9,5 km/h (2 Bft)
01.06.2012 23:00 14,4 C 80 % 1015,1 hPa 0,0 l/m W 0,00 h 0 W/m 4,8 km/h (1 Bft)
02.06.2012 00:00 14,4 C 78 % 1015,0 hPa 0,0 l/m W 0,00 h 0 W/m 4,7 km/h (1 Bft)
02.06.2012 01:00 14,4 C 80 % 1014,8 hPa 0,0 l/m W 0,00 h 0 W/m 5,1 km/h (1 Bft)
02.06.2012 02:00 13,9 C 86 % 1014,4 hPa 0,0 l/m N 0,00 h 0 W/m 1,3 km/h (1 Bft)
02.06.2012 03:00 13,6 C 88 % 1014,1 hPa 0,0 l/m N 0,00 h 0 W/m 0,7 km/h (0 Bft)
02.06.2012 04:00 13,4 C 89 % 1014,0 hPa 0,0 l/m N 0,00 h 0 W/m 0,1 km/h (0 Bft)
02.06.2012 05:00 13,3 C 87 % 1014,1 hPa 0,0 l/m N 0,00 h 7 W/m 0,0 km/h (0 Bft)
02.06.2012 06:00 13,3 C 88 % 1014,5 hPa 0,0 l/m W-NW 0,00 h 43 W/m 0,9 km/h (0 Bft)
02.06.2012 07:00 14,0 C 85 % 1014,5 hPa 0,0 l/m N 0,75 h 199 W/m 5,2 km/h (1 Bft)
02.06.2012 08:00 15,7 C 76 % 1014,3 hPa 0,0 l/m NO 1,00 h 372 W/m 4,4 km/h (1 Bft)
02.06.2012 09:00 17,0 C 71 % 1014,2 hPa 0,0 l/m O 1,00 h 538 W/m 7,9 km/h (2 Bft)
02.06.2012 10:00 18,2 C 67 % 1013,9 hPa 0,0 l/m W-SW 0,92 h 681 W/m 10,1 km/h (2 Bft)
02.06.2012 11:00 19,0 C 63 % 1013,4 hPa 0,0 l/m W 0,50 h 519 W/m 9,0 km/h (2 Bft)
02.06.2012 12:00 19,6 C 57 % 1012,9 hPa 0,0 l/m W 0,50 h 678 W/m 8,2 km/h (2 Bft)
02.06.2012 13:00 21,0 C 57 % 1012,3 hPa 0,0 l/m SW 0,92 h 865 W/m 9,5 km/h (2 Bft)
02.06.2012 14:00 22,4 C 52 % 1011,8 hPa 0,0 l/m W-NW 0,92 h 828 W/m 10,2 km/h (2 Bft)
02.06.2012 15:00 22,5 C 50 % 1011,2 hPa 0,0 l/m W-NW 0,42 h 435 W/m 8,7 km/h (2 Bft)
02.06.2012 16:00 23,0 C 50 % 1010,7 hPa 0,0 l/m SW 0,83 h 554 W/m 8,7 km/h (2 Bft)
02.06.2012 17:00 24,1 C 45 % 1010,0 hPa 0,0 l/m W 1,00 h 577 W/m 9,8 km/h (2 Bft)
02.06.2012 18:00 24,0 C 44 % 1009,7 hPa 0,0 l/m N-NW 1,00 h 396 W/m 5,2 km/h (1 Bft)
02.06.2012 19:00 23,1 C 50 % 1009,5 hPa 0,0 l/m N-NW 1,00 h 209 W/m 3,1 km/h (1 Bft)
02.06.2012 20:00 20,5 C 64 % 1009,3 hPa 0,0 l/m N-NW 0,17 h 36 W/m 2,4 km/h (1 Bft)
02.06.2012 21:00 18,7 C 66 % 1009,8 hPa 0,0 l/m N 0,08 h 6 W/m 6,4 km/h (2 Bft)
02.06.2012 22:00 16,8 C 74 % 1010,0 hPa 0,0 l/m N 0,00 h 0 W/m 2,5 km/h (1 Bft)
02.06.2012 23:00 15,4 C 81 % 1009,7 hPa 0,0 l/m N 0,00 h 0 W/m 1,1 km/h (0 Bft)
03.06.2012 00:00 14,7 C 83 % 1009,6 hPa 0,0 l/m N-NO 0,00 h 0 W/m 3,3 km/h (1 Bft)
03.06.2012 01:00 14,6 C 82 % 1009,2 hPa 0,0 l/m N-NO 0,00 h 0 W/m 5,2 km/h (1 Bft)
03.06.2012 02:00 13,9 C 84 % 1008,7 hPa 0,0 l/m N 0,00 h 0 W/m 3,2 km/h (1 Bft)
03.06.2012 03:00 12,9 C 89 % 1008,3 hPa 0,0 l/m N 0,00 h 0 W/m 1,9 km/h (1 Bft)
03.06.2012 04:00 12,3 C 92 % 1008,0 hPa 0,0 l/m N 0,00 h 0 W/m 1,3 km/h (1 Bft)
03.06.2012 05:00 11,9 C 92 % 1007,5 hPa 0,0 l/m N 0,00 h 10 W/m 0,3 km/h (0 Bft)
03.06.2012 06:00 12,2 C 93 % 1007,2 hPa 0,0 l/m N 0,00 h 33 W/m 0,9 km/h (0 Bft)
03.06.2012 07:00 13,0 C 90 % 1007,1 hPa 0,0 l/m N 0,00 h 62 W/m 0,7 km/h (0 Bft)
03.06.2012 08:00 14,3 C 89 % 1007,8 hPa 0,0 l/m W 0,00 h 47 W/m 4,8 km/h (1 Bft)
03.06.2012 09:00 15,5 C 93 % 1008,8 hPa 3,4 l/m W-SW 0,00 h 43 W/m 20,5 km/h (4 Bft)
03.06.2012 10:00 15,7 C 97 % 1008,3 hPa 0,2 l/m SW 0,00 h 106 W/m 16,6 km/h (3 Bft)
03.06.2012 11:00 16,3 C 97 % 1007,5 hPa 0,0 l/m W-SW 0,00 h 118 W/m 19,3 km/h (3 Bft)
03.06.2012 12:00 16,6 C 96 % 1006,9 hPa 0,0 l/m W-SW 0,00 h 108 W/m 14,2 km/h (3 Bft)
03.06.2012 13:00 17,5 C 94 % 1006,8 hPa 0,0 l/m W-SW 0,00 h 163 W/m 14,5 km/h (3 Bft)
03.06.2012 14:00 18,0 C 90 % 1006,2 hPa 0,0 l/m SW 0,00 h 178 W/m 16,9 km/h (3 Bft)
03.06.2012 15:00 18,3 C 86 % 1005,8 hPa 0,0 l/m W-SW 0,00 h 105 W/m 17,0 km/h (3 Bft)
03.06.2012 16:00 17,4 C 89 % 1006,1 hPa 0,6 l/m W-SW 0,00 h 43 W/m 15,8 km/h (3 Bft)
03.06.2012 17:00 16,5 C 94 % 1006,3 hPa 0,6 l/m W-SW 0,00 h 47 W/m 17,6 km/h (3 Bft)
03.06.2012 18:00 15,9 C 95 % 1007,1 hPa 2,2 l/m W-SW 0,00 h 14 W/m 18,4 km/h (3 Bft)
03.06.2012 19:00 15,2 C 97 % 1007,8 hPa 1,6 l/m W-SW 0,00 h 17 W/m 15,7 km/h (3 Bft)
03.06.2012 20:00 14,9 C 98 % 1008,2 hPa 0,2 l/m SW 0,00 h 10 W/m 12,5 km/h (3 Bft)
03.06.2012 21:00 14,1 C 97 % 1009,1 hPa 2,2 l/m W 0,00 h 0 W/m 11,7 km/h (2 Bft)
03.06.2012 22:00 13,4 C 96 % 1010,2 hPa 1,0 l/m W 0,00 h 0 W/m 10,1 km/h (2 Bft)
03.06.2012 23:00 13,3 C 98 % 1010,4 hPa 1,2 l/m SW 0,00 h 0 W/m 12,9 km/h (3 Bft)
Min-Datum _ 28.05.12 29.05.12 03.06.12 - - - - 28.05.12
_ Min-Zeit 05:35 16:15 15:45 - - - - 01:30
Minimum _ 9,3 C 28 % 1005,6 hPa - - - - 0,0 km/h (0 Bft)
Max-Datum _ 30.05.12 31.05.12 31.05.12 30.05.12 - 28.05.12 28.05.12 30.05.12
_ Max-Zeit 15:30 06:15 08:25 19:30 - 07:05 13:10 23:50
Maximum _ 24,9 C 99 % 1018,4 hPa 7,0 l/m - 0,08 h 1106 W/m 38,6 km/h
W (5 Bft)
Durchschnitt _ 16,6 C 74 % 1013,1 hPa #33,2 l/m W-SW #45:45 h 302 W/m 8,5 km/h (2 Bft)